LFRJ 211130Z AUTO 08005KT 9999 OVC034 07/00 Q1040 NOSIG

ElémentsDécodage
LFRJ Station météo située sur l'aérodrome de LANDIVISIAU
211130Z émis le 21 du mois à 11h30 UTC
AUTO Bulletin édité par un automate
08005KT vent du 080°, 05 noeuds
9999 visibilité horizontale supérieure à 10 Km
OVC034 couverture nuageuse totale (8/8) à 3400 pieds
07/00 température 07°C, point de rosée 00°C
 soit une humidité relative de 61%
Q1040 la pression au niveau de la mer (QNH) est de 1040 hPa
NOSIG Pas de changement significatif prévu au cours des deux heures suivant l'heure de l'observation